Time;durP1;ratioP1;P1;durP2;ratioP2;P2;SDS_P1;SDS_P2;PMS_P1;PMS_P2;Temp;Humidity;BMP_temperature;BMP_pressure;BME280_temperature;BME280_humidity;BME280_pressure;Samples;Min_cycle;Max_cycle;Signal;HPM_P1;HPM_P2
2024/01/08 00:01:27;;;;;;;0.90;0.90;;;-19.00;99.90;;;;;;4992281;28;20199;-68
2024/01/08 00:03:53;;;;;;;0.90;0.90;;;-19.00;99.90;;;;;;4991782;28;20658;-66
2024/01/08 00:06:24;;;;;;;0.90;0.90;;;-19.10;99.90;;;;;;4991846;28;20471;-67
2024/01/08 00:08:50;;;;;;;0.80;0.80;;;-19.20;99.90;;;;;;5002097;28;20221;-65
2024/01/08 00:11:21;;;;;;;0.80;0.80;;;-19.30;99.90;;;;;;5011320;28;20270;-65
2024/01/08 00:13:55;;;;;;;0.80;0.80;;;-19.30;99.90;;;;;;5011227;28;20700;-66
2024/01/08 00:16:20;;;;;;;0.90;0.90;;;-19.30;99.90;;;;;;5010894;28;20198;-66
2024/01/08 00:18:55;;;;;;;0.90;0.90;;;-19.30;99.90;;;;;;5011571;28;20577;-64
2024/01/08 00:21:26;;;;;;;0.90;0.90;;;-19.30;99.90;;;;;;5010916;28;20625;-66
2024/01/08 00:24:20;;;;;;;0.90;0.90;;;-19.30;99.90;;;;;;5011099;28;20210;-65
2024/01/08 00:26:45;;;;;;;0.90;0.90;;;-19.20;99.90;;;;;;5009320;28;20214;-66
2024/01/08 00:29:19;;;;;;;0.90;0.90;;;-19.20;99.90;;;;;;5010987;28;20582;-66
2024/01/08 00:31:45;;;;;;;0.90;0.90;;;-19.20;99.90;;;;;;5011692;28;20213;-66
2024/01/08 00:34:27;;;;;;;1.00;1.00;;;-19.10;99.90;;;;;;5011090;28;20281;-66
2024/01/08 00:36:53;;;;;;;0.90;0.90;;;-19.20;99.90;;;;;;5011607;28;20274;-65
2024/01/08 00:39:18;;;;;;;0.90;0.90;;;-19.30;99.90;;;;;;5012544;28;20194;-66
2024/01/08 00:41:44;;;;;;;0.90;0.90;;;-19.40;99.90;;;;;;5012433;28;20206;-65
2024/01/08 00:44:10;;;;;;;0.83;0.83;;;-19.40;99.90;;;;;;5012561;28;20210;-65
2024/01/08 00:46:35;;;;;;;0.90;0.90;;;-19.40;99.90;;;;;;5012173;28;20198;-65
2024/01/08 00:49:01;;;;;;;0.90;0.90;;;-19.30;99.90;;;;;;5012451;28;20202;-65
2024/01/08 00:51:27;;;;;;;0.90;0.90;;;-19.40;99.90;;;;;;5012170;28;20341;-65
2024/01/08 00:53:52;;;;;;;0.90;0.90;;;-19.50;99.90;;;;;;5003413;28;20565;-65
2024/01/08 00:56:18;;;;;;;0.90;0.90;;;-19.60;99.90;;;;;;4992626;28;20188;-65
2024/01/08 00:58:44;;;;;;;0.90;0.90;;;-19.50;99.90;;;;;;4992777;28;20206;-65
2024/01/08 01:01:11;;;;;;;1.00;1.00;;;-19.50;99.90;;;;;;4992483;28;20294;-67
2024/01/08 01:03:37;;;;;;;1.00;1.00;;;-19.50;99.90;;;;;;4992151;28;20203;-67
2024/01/08 01:06:03;;;;;;;0.90;0.90;;;-19.50;99.90;;;;;;5012310;28;20197;-67
2024/01/08 01:08:29;;;;;;;0.90;0.90;;;-19.60;99.90;;;;;;5011970;28;20198;-67
2024/01/08 01:10:54;;;;;;;0.83;0.83;;;-19.50;99.90;;;;;;5012203;28;20186;-67
2024/01/08 01:13:20;;;;;;;0.80;0.80;;;-19.50;99.90;;;;;;5011926;28;20261;-67
2024/01/08 01:15:46;;;;;;;0.80;0.80;;;-19.50;99.90;;;;;;5012213;28;20273;-67
2024/01/08 01:18:12;;;;;;;0.80;0.80;;;-19.50;99.90;;;;;;5012095;28;20274;-67
2024/01/08 01:20:37;;;;;;;0.80;0.80;;;-19.50;99.90;;;;;;5010613;28;20213;-66
2024/01/08 01:23:03;;;;;;;0.87;0.87;;;-19.50;99.90;;;;;;5012261;28;20593;-67
2024/01/08 01:25:29;;;;;;;0.90;0.90;;;-19.60;99.90;;;;;;5011811;28;20203;-67
2024/01/08 01:27:54;;;;;;;0.80;0.80;;;-19.60;99.90;;;;;;5014568;28;20540;-66
2024/01/08 01:30:20;;;;;;;0.90;0.90;;;-19.70;99.90;;;;;;5015665;28;20215;-67
2024/01/08 01:32:46;;;;;;;0.90;0.90;;;-19.70;99.90;;;;;;5016013;28;20230;-66
2024/01/08 01:35:11;;;;;;;0.80;0.80;;;-19.70;99.90;;;;;;5016240;28;20195;-67
2024/01/08 01:37:38;;;;;;;0.90;0.90;;;-19.80;99.90;;;;;;5015448;28;20288;-67
2024/01/08 01:40:04;;;;;;;0.80;0.80;;;-19.80;99.90;;;;;;4998189;28;20207;-67
2024/01/08 01:42:30;;;;;;;0.90;0.90;;;-19.70;99.90;;;;;;5015536;28;20285;-67
2024/01/08 01:44:56;;;;;;;0.80;0.80;;;-19.70;99.90;;;;;;5014417;28;20276;-67
2024/01/08 01:47:23;;;;;;;0.80;0.80;;;-19.80;99.90;;;;;;5014090;28;20203;-68
2024/01/08 01:49:50;;;;;;;0.70;0.70;;;-19.80;99.90;;;;;;5015296;28;20214;-67
2024/01/08 01:52:16;;;;;;;0.90;0.90;;;-19.70;99.90;;;;;;5015609;28;20198;-67
2024/01/08 01:54:42;;;;;;;0.90;0.90;;;-19.70;99.90;;;;;;5015331;28;20559;-67
2024/01/08 01:57:08;;;;;;;0.90;0.90;;;-19.70;99.90;;;;;;5021369;28;20206;-67
2024/01/08 01:59:34;;;;;;;0.80;0.80;;;-19.70;99.90;;;;;;5034980;28;20198;-67
2024/01/08 02:02:01;;;;;;;0.90;0.90;;;-19.70;99.90;;;;;;5008953;28;20606;-67
2024/01/08 02:04:29;;;;;;;0.90;0.90;;;-19.90;99.90;;;;;;5014954;28;21038;-67
2024/01/08 02:06:58;;;;;;;0.90;0.90;;;-19.90;99.90;;;;;;5015034;28;20610;-67
2024/01/08 02:09:26;;;;;;;0.80;0.80;;;-20.00;99.90;;;;;;5014769;28;20215;-68
2024/01/08 02:11:52;;;;;;;0.90;0.90;;;-19.90;99.90;;;;;;5015307;28;20223;-65
2024/01/08 02:14:18;;;;;;;0.90;0.90;;;-19.90;99.90;;;;;;5015157;28;20609;-66
2024/01/08 02:16:43;;;;;;;0.90;0.90;;;-19.90;99.90;;;;;;5015022;28;20675;-65
2024/01/08 02:19:11;;;;;;;0.80;0.80;;;-19.90;99.90;;;;;;5015182;28;20202;-66
2024/01/08 02:21:36;;;;;;;0.80;0.80;;;-20.00;99.90;;;;;;5014874;28;20218;-65
2024/01/08 02:24:04;;;;;;;0.80;0.80;;;-20.00;99.90;;;;;;5015047;28;20229;-65
2024/01/08 02:26:30;;;;;;;0.90;0.90;;;-20.00;99.90;;;;;;5014765;28;20199;-65
2024/01/08 02:28:55;;;;;;;2.30;2.10;;;-19.90;99.90;;;;;;5014900;28;20206;-65
2024/01/08 02:31:21;;;;;;;0.80;0.80;;;-20.00;99.90;;;;;;5014103;28;20237;-65
2024/01/08 02:33:47;;;;;;;0.77;0.77;;;-20.00;99.90;;;;;;5014968;28;20289;-65
2024/01/08 02:36:12;;;;;;;0.80;0.80;;;-20.00;99.90;;;;;;5014606;28;20242;-65
2024/01/08 02:38:38;;;;;;;0.70;0.70;;;-20.10;99.90;;;;;;5014289;28;20199;-65
2024/01/08 02:41:04;;;;;;;0.90;0.90;;;-20.10;99.90;;;;;;5014759;28;20202;-66
2024/01/08 02:43:31;;;;;;;0.70;0.70;;;-20.00;99.90;;;;;;5014482;28;20198;-65
2024/01/08 02:45:56;;;;;;;0.90;0.90;;;-20.10;99.90;;;;;;5013684;28;20222;-65
2024/01/08 02:48:22;;;;;;;0.80;0.80;;;-20.10;99.90;;;;;;5014221;28;20194;-65
2024/01/08 02:50:48;;;;;;;0.80;0.80;;;-20.30;99.90;;;;;;5014590;28;20190;-65
2024/01/08 02:53:13;;;;;;;0.80;0.80;;;-20.30;99.90;;;;;;5014307;28;20268;-65
2024/01/08 02:55:39;;;;;;;0.80;0.80;;;-20.30;99.90;;;;;;5032510;28;20208;-65
2024/01/08 02:58:05;;;;;;;0.90;0.90;;;-20.30;99.90;;;;;;5017508;28;20217;-65
2024/01/08 03:00:31;;;;;;;1.00;1.00;;;-20.20;99.90;;;;;;5014061;28;20198;-65
2024/01/08 03:02:57;;;;;;;0.80;0.80;;;-20.20;99.90;;;;;;5013935;28;20812;-65
2024/01/08 03:05:22;;;;;;;0.90;0.90;;;-20.10;99.90;;;;;;5013915;28;20195;-65
2024/01/08 03:07:48;;;;;;;1.00;1.00;;;-20.10;99.90;;;;;;5014188;28;20194;-65
2024/01/08 03:10:14;;;;;;;0.90;0.90;;;-20.10;99.90;;;;;;5013969;28;20202;-66
2024/01/08 03:12:39;;;;;;;0.90;0.90;;;-20.00;99.90;;;;;;5013568;28;20190;-65
2024/01/08 03:15:05;;;;;;;0.90;0.90;;;-20.00;99.90;;;;;;5014139;28;20199;-65
2024/01/08 03:17:31;;;;;;;0.90;0.90;;;-20.00;99.90;;;;;;5013809;28;20202;-65
2024/01/08 03:19:57;;;;;;;0.90;0.90;;;-20.00;99.90;;;;;;5013979;28;20198;-66
2024/01/08 03:22:22;;;;;;;0.90;0.90;;;-19.90;99.90;;;;;;5013727;28;20573;-69
2024/01/08 03:24:48;;;;;;;0.90;0.90;;;-19.90;99.90;;;;;;5013874;28;20253;-69
2024/01/08 03:27:14;;;;;;;0.83;0.83;;;-20.00;99.90;;;;;;5013754;28;20350;-69
2024/01/08 03:29:40;;;;;;;0.87;0.87;;;-20.20;99.90;;;;;;5013477;28;20225;-69
2024/01/08 03:32:06;;;;;;;0.90;0.90;;;-20.20;99.90;;;;;;5013665;28;20191;-69
2024/01/08 03:34:32;;;;;;;0.80;0.80;;;-20.30;99.90;;;;;;5013546;28;20266;-69
2024/01/08 03:36:58;;;;;;;0.90;0.90;;;-20.30;99.90;;;;;;5013472;28;20318;-69
2024/01/08 03:39:25;;;;;;;0.80;0.80;;;-20.40;99.90;;;;;;5013347;28;20226;-69
2024/01/08 03:41:50;;;;;;;0.90;0.90;;;-20.30;99.90;;;;;;5011935;28;20203;-69
2024/01/08 03:44:16;;;;;;;0.90;0.90;;;-20.40;99.90;;;;;;5013475;28;20202;-69
2024/01/08 03:46:42;;;;;;;0.80;0.80;;;-20.40;99.90;;;;;;4995580;28;20721;-69
2024/01/08 03:49:08;;;;;;;0.83;0.83;;;-20.40;99.90;;;;;;5012707;28;20210;-69
2024/01/08 03:51:36;;;;;;;0.90;0.90;;;-20.40;99.90;;;;;;5030965;28;20187;-69
2024/01/08 03:54:02;;;;;;;0.83;0.83;;;-20.30;99.90;;;;;;5011735;28;20191;-69
2024/01/08 03:56:28;;;;;;;0.87;0.87;;;-20.30;99.90;;;;;;5012998;28;20195;-69
2024/01/08 03:58:54;;;;;;;0.90;0.90;;;-20.30;99.90;;;;;;4995616;28;20199;-69
2024/01/08 04:01:19;;;;;;;0.90;0.90;;;-20.30;99.90;;;;;;5011676;28;20302;-68
2024/01/08 04:03:45;;;;;;;0.80;0.80;;;-20.40;99.90;;;;;;5011700;28;20206;-69
2024/01/08 04:06:11;;;;;;;0.90;0.90;;;-20.40;99.90;;;;;;5013060;28;20463;-69
2024/01/08 04:08:36;;;;;;;0.80;0.80;;;-20.40;99.90;;;;;;5012789;28;20277;-69
2024/01/08 04:11:03;;;;;;;0.80;0.80;;;-20.50;99.90;;;;;;5011942;28;20341;-69
2024/01/08 04:13:30;;;;;;;0.80;0.80;;;-20.50;99.90;;;;;;5012654;28;20738;-69
2024/01/08 04:15:55;;;;;;;0.90;0.90;;;-20.50;99.90;;;;;;5012970;28;20210;-69
2024/01/08 04:18:21;;;;;;;0.90;0.90;;;-20.50;99.90;;;;;;5012651;28;20583;-68
2024/01/08 04:20:47;;;;;;;0.87;0.87;;;-20.60;99.90;;;;;;5012810;28;20287;-69
2024/01/08 04:23:13;;;;;;;0.90;0.90;;;-20.70;99.90;;;;;;5012913;28;20539;-68
2024/01/08 04:25:38;;;;;;;0.90;0.90;;;-20.70;99.90;;;;;;5012587;28;20191;-69
2024/01/08 04:28:04;;;;;;;0.90;0.90;;;-20.70;99.90;;;;;;5012837;28;20198;-69
2024/01/08 04:30:30;;;;;;;0.90;0.90;;;-20.60;99.90;;;;;;5011050;28;20306;-66
2024/01/08 04:32:56;;;;;;;0.90;0.90;;;-20.60;99.90;;;;;;5012605;28;20282;-66
2024/01/08 04:35:21;;;;;;;0.80;0.80;;;-20.60;99.90;;;;;;5011089;28;20298;-67
2024/01/08 04:37:47;;;;;;;0.90;0.90;;;-20.60;99.90;;;;;;5012516;28;20241;-66
2024/01/08 04:40:14;;;;;;;0.90;0.90;;;-20.60;99.90;;;;;;5011168;28;20207;-66
2024/01/08 04:42:39;;;;;;;0.83;0.83;;;-20.60;99.90;;;;;;5012478;28;20218;-66
2024/01/08 04:45:05;;;;;;;0.90;0.90;;;-20.70;99.90;;;;;;5012452;28;20198;-66
2024/01/08 04:47:31;;;;;;;0.93;0.93;;;-20.70;99.90;;;;;;5029786;28;20284;-66
2024/01/08 04:49:57;;;;;;;1.00;1.00;;;-20.80;99.90;;;;;;5020890;28;20686;-66
2024/01/08 04:52:23;;;;;;;0.90;0.90;;;-20.80;99.90;;;;;;5012150;28;20654;-66
2024/01/08 04:54:49;;;;;;;0.90;0.90;;;-20.80;99.90;;;;;;5011149;28;20194;-66
2024/01/08 04:57:14;;;;;;;0.90;0.90;;;-20.70;99.90;;;;;;5012330;28;20191;-66
2024/01/08 04:59:41;;;;;;;0.90;0.90;;;-20.60;99.90;;;;;;5012209;28;20218;-67
2024/01/08 05:02:08;;;;;;;0.80;0.80;;;-20.60;99.90;;;;;;5017302;28;20252;-66
2024/01/08 05:04:34;;;;;;;0.80;0.80;;;-20.60;99.90;;;;;;5018745;28;20533;-67
2024/01/08 05:07:00;;;;;;;0.90;0.90;;;-20.50;99.90;;;;;;5018813;28;20197;-66
2024/01/08 05:09:26;;;;;;;0.90;0.90;;;-20.60;99.90;;;;;;5018504;28;20214;-66
2024/01/08 05:11:51;;;;;;;0.90;0.90;;;-20.70;99.90;;;;;;5018857;28;20558;-66
2024/01/08 05:14:17;;;;;;;0.80;0.80;;;-20.70;99.90;;;;;;5018678;28;20199;-66
2024/01/08 05:16:43;;;;;;;0.80;0.80;;;-20.70;99.90;;;;;;5018716;28;20540;-66
2024/01/08 05:19:08;;;;;;;0.83;0.83;;;-20.70;99.90;;;;;;5018724;28;20541;-66
2024/01/08 05:21:34;;;;;;;0.80;0.80;;;-20.70;99.90;;;;;;5018590;28;20234;-67
2024/01/08 05:24:00;;;;;;;0.80;0.80;;;-20.80;99.90;;;;;;5018663;28;20194;-66
2024/01/08 05:26:25;;;;;;;0.80;0.80;;;-20.80;99.90;;;;;;5018310;28;20242;-66
2024/01/08 05:28:51;;;;;;;0.80;0.80;;;-20.80;99.90;;;;;;5018641;28;20286;-66
2024/01/08 05:31:17;;;;;;;0.70;0.70;;;-20.80;99.90;;;;;;5018435;28;20187;-66
2024/01/08 05:33:43;;;;;;;0.90;0.90;;;-20.70;99.90;;;;;;5018400;28;20560;-66
2024/01/08 05:36:09;;;;;;;0.90;0.90;;;-20.80;99.90;;;;;;5014601;28;20230;-67
2024/01/08 05:38:35;;;;;;;0.90;0.90;;;-20.80;99.90;;;;;;5016774;28;20554;-66
2024/01/08 05:41:01;;;;;;;0.90;0.90;;;-20.90;99.90;;;;;;5017845;28;20199;-64
2024/01/08 05:43:27;;;;;;;0.90;0.90;;;-20.90;99.90;;;;;;5034999;28;20819;-64
2024/01/08 05:45:53;;;;;;;0.83;0.83;;;-20.80;99.90;;;;;;5029591;28;20282;-64
2024/01/08 05:48:19;;;;;;;0.80;0.80;;;-20.80;99.90;;;;;;5018158;28;20194;-66
2024/01/08 05:50:46;;;;;;;0.90;0.90;;;-20.70;99.90;;;;;;5016982;28;20206;-64
2024/01/08 05:53:13;;;;;;;0.80;0.80;;;-20.70;99.90;;;;;;5018357;28;20317;-65
2024/01/08 05:55:38;;;;;;;0.90;0.90;;;-20.70;99.90;;;;;;5018196;28;20194;-64
2024/01/08 05:58:04;;;;;;;0.83;0.83;;;-20.70;99.90;;;;;;5018329;28;20686;-64
2024/01/08 06:00:30;;;;;;;0.80;0.80;;;-20.70;99.90;;;;;;5017899;28;20194;-64
2024/01/08 06:02:56;;;;;;;0.90;0.90;;;-20.70;99.90;;;;;;5018137;28;20210;-64
2024/01/08 06:05:21;;;;;;;0.77;0.77;;;-20.80;99.90;;;;;;5018031;28;20195;-65
2024/01/08 06:07:48;;;;;;;0.70;0.70;;;-20.80;99.90;;;;;;5018161;28;20221;-64
2024/01/08 06:10:14;;;;;;;0.80;0.80;;;-20.80;99.90;;;;;;5018147;28;20230;-64
2024/01/08 06:12:40;;;;;;;0.80;0.80;;;-20.80;99.90;;;;;;5016174;28;20198;-64
2024/01/08 06:15:06;;;;;;;0.80;0.80;;;-20.70;99.90;;;;;;5015172;28;20195;-64
2024/01/08 06:17:32;;;;;;;0.90;0.90;;;-20.60;99.90;;;;;;5014882;28;20194;-64
2024/01/08 06:19:57;;;;;;;0.80;0.80;;;-20.50;99.90;;;;;;5015044;28;20226;-64
2024/01/08 06:22:23;;;;;;;0.80;0.80;;;-20.50;99.90;;;;;;5014777;28;20195;-64
2024/01/08 06:24:49;;;;;;;0.80;0.80;;;-20.50;99.90;;;;;;5006845;28;20203;-64
2024/01/08 06:27:15;;;;;;;1.10;1.10;;;-20.40;99.90;;;;;;5014948;28;20217;-64
2024/01/08 06:29:41;;;;;;;0.80;0.80;;;-20.50;99.90;;;;;;5014913;28;20203;-65
2024/01/08 06:32:07;;;;;;;0.80;0.80;;;-20.40;99.90;;;;;;5014113;28;20393;-65
2024/01/08 06:34:32;;;;;;;0.80;0.80;;;-20.40;99.90;;;;;;5014606;28;20195;-64
2024/01/08 06:36:58;;;;;;;0.80;0.80;;;-20.30;99.90;;;;;;5014613;28;20358;-64
2024/01/08 06:39:26;;;;;;;0.80;0.80;;;-20.20;99.90;;;;;;5022645;28;20532;-64
2024/01/08 06:41:51;;;;;;;0.80;0.80;;;-20.20;99.90;;;;;;5027830;28;20717;-64
2024/01/08 06:44:17;;;;;;;0.80;0.80;;;-20.20;99.90;;;;;;5013246;28;20290;-65
2024/01/08 06:46:43;;;;;;;0.80;0.80;;;-20.20;99.90;;;;;;5014437;28;20684;-64
2024/01/08 06:49:09;;;;;;;0.83;0.83;;;-20.20;99.90;;;;;;5014404;28;20203;-65
2024/01/08 06:51:41;;;;;;;0.80;0.80;;;-20.20;99.90;;;;;;5014333;28;20927;-69
2024/01/08 06:54:07;;;;;;;0.90;0.90;;;-20.20;99.90;;;;;;5014353;28;20277;-69
2024/01/08 06:56:33;;;;;;;0.80;0.80;;;-20.30;99.90;;;;;;5014169;28;20756;-69
2024/01/08 06:59:03;;;;;;;0.80;0.80;;;-20.50;99.90;;;;;;5014474;28;20306;-69
2024/01/08 07:01:30;;;;;;;0.90;0.90;;;-20.50;99.90;;;;;;5013950;28;20187;-69
2024/01/08 07:03:56;;;;;;;0.90;0.90;;;-20.60;99.90;;;;;;5013946;28;20191;-69
2024/01/08 07:06:22;;;;;;;0.90;0.90;;;-20.60;99.90;;;;;;5013970;28;20201;-69
2024/01/08 07:08:48;;;;;;;0.77;0.77;;;-20.60;99.90;;;;;;5014318;28;20198;-69
2024/01/08 07:11:24;;;;;;;0.90;0.90;;;-20.50;99.90;;;;;;5014076;28;20238;-69
2024/01/08 07:13:50;;;;;;;0.80;0.80;;;-20.50;99.90;;;;;;5014004;28;20205;-69
2024/01/08 07:16:17;;;;;;;0.80;0.80;;;-20.50;99.90;;;;;;5013946;28;20195;-69
2024/01/08 07:18:43;;;;;;;0.90;0.90;;;-20.60;99.90;;;;;;5013897;28;20274;-68
2024/01/08 07:21:11;;;;;;;0.80;0.80;;;-20.60;99.90;;;;;;5013958;28;20238;-68
2024/01/08 07:23:37;;;;;;;0.80;0.80;;;-20.70;99.90;;;;;;5013465;28;20629;-69
2024/01/08 07:26:03;;;;;;;0.70;0.70;;;-20.70;99.90;;;;;;5012997;28;20191;-69
2024/01/08 07:28:29;;;;;;;0.90;0.90;;;-20.70;99.90;;;;;;5006399;28;20206;-69
2024/01/08 07:30:55;;;;;;;0.87;0.87;;;-20.70;99.90;;;;;;5013699;28;20299;-69
2024/01/08 07:33:23;;;;;;;0.80;0.80;;;-20.60;99.90;;;;;;5013468;28;20187;-69
2024/01/08 07:35:49;;;;;;;0.90;0.90;;;-20.50;99.90;;;;;;5025001;28;20226;-69
2024/01/08 07:38:15;;;;;;;0.90;0.90;;;-20.50;99.90;;;;;;5020889;28;20191;-69
2024/01/08 07:40:40;;;;;;;0.90;0.90;;;-20.50;99.90;;;;;;5012194;28;20337;-69
2024/01/08 07:43:06;;;;;;;0.90;0.90;;;-20.40;99.90;;;;;;5013570;28;20241;-69
2024/01/08 07:45:32;;;;;;;0.90;0.90;;;-20.40;99.90;;;;;;5013646;28;20230;-68
2024/01/08 07:47:57;;;;;;;0.80;0.80;;;-20.40;99.90;;;;;;5013497;28;20679;-69
2024/01/08 07:50:23;;;;;;;0.83;0.83;;;-20.40;99.90;;;;;;5013130;28;20294;-69
2024/01/08 07:52:49;;;;;;;0.90;0.90;;;-20.40;99.90;;;;;;5005358;28;20241;-69
2024/01/08 07:55:14;;;;;;;0.97;0.97;;;-20.40;99.90;;;;;;5013536;28;20270;-70
2024/01/08 07:57:40;;;;;;;0.70;0.70;;;-20.40;99.90;;;;;;5012962;28;20621;-70
2024/01/08 08:00:09;;;;;;;0.90;0.90;;;-20.50;99.90;;;;;;5013264;28;20206;-64
2024/01/08 08:02:35;;;;;;;0.80;0.80;;;-20.40;99.90;;;;;;5012662;28;20222;-69
2024/01/08 08:05:01;;;;;;;0.93;0.93;;;-20.40;99.90;;;;;;5013255;28;20195;-69
2024/01/08 08:07:28;;;;;;;0.87;0.87;;;-20.40;99.90;;;;;;5012936;28;20221;-69
2024/01/08 08:09:54;;;;;;;0.80;0.80;;;-20.30;99.90;;;;;;5012708;28;20323;-69
2024/01/08 08:12:20;;;;;;;0.80;0.80;;;-20.30;99.90;;;;;;5012859;28;20191;-68
2024/01/08 08:14:47;;;;;;;0.90;0.90;;;-20.30;99.90;;;;;;5012899;28;20249;-69
2024/01/08 08:17:13;;;;;;;0.83;0.83;;;-20.20;99.90;;;;;;5012843;28;20256;-69
2024/01/08 08:19:42;;;;;;;0.90;0.90;;;-20.20;99.90;;;;;;5012740;28;21081;-69
2024/01/08 08:22:11;;;;;;;0.90;0.90;;;-20.10;99.90;;;;;;5012898;28;20222;-69
2024/01/08 08:24:40;;;;;;;0.73;0.73;;;-20.00;99.90;;;;;;5012472;28;20209;-69
2024/01/08 08:27:09;;;;;;;0.90;0.90;;;-19.90;99.90;;;;;;5012734;28;20724;-69
2024/01/08 08:29:37;;;;;;;0.90;0.90;;;-19.80;99.90;;;;;;5011101;28;20191;-69
2024/01/08 08:32:04;;;;;;;0.87;0.87;;;-19.80;99.90;;;;;;5023100;28;20201;-69
2024/01/08 08:34:30;;;;;;;0.90;0.90;;;-19.70;99.90;;;;;;5021696;28;20203;-68
2024/01/08 08:36:56;;;;;;;0.90;0.90;;;-19.70;99.90;;;;;;5009193;28;20227;-69
2024/01/08 08:39:22;;;;;;;0.90;0.90;;;-19.60;99.90;;;;;;5009454;28;20195;-69
2024/01/08 08:41:48;;;;;;;0.80;0.80;;;-19.60;99.90;;;;;;5009461;28;20697;-69
2024/01/08 08:44:14;;;;;;;4.67;2.73;;;-19.50;99.90;;;;;;5009577;28;20278;-69
2024/01/08 08:46:39;;;;;;;0.90;0.90;;;-19.50;99.90;;;;;;5009417;28;20568;-69
2024/01/08 08:49:06;;;;;;;0.77;0.77;;;-19.40;99.90;;;;;;5009819;28;20203;-69
2024/01/08 08:51:34;;;;;;;0.80;0.80;;;-19.40;99.90;;;;;;5009318;28;20179;-69
2024/01/08 08:54:03;;;;;;;0.90;0.90;;;-19.30;99.90;;;;;;5009499;28;20187;-69
2024/01/08 08:56:35;;;;;;;0.87;0.87;;;-19.20;99.90;;;;;;5009383;28;20214;-69
2024/01/08 08:59:01;;;;;;;0.90;0.90;;;-19.20;99.90;;;;;;5009403;28;20269;-70
2024/01/08 09:01:27;;;;;;;0.83;0.83;;;-19.10;99.90;;;;;;5009158;28;20202;-69
2024/01/08 09:03:53;;;;;;;0.70;0.70;;;-19.00;99.90;;;;;;5009247;28;20205;-69
2024/01/08 09:06:27;;;;;;;0.83;0.83;;;-18.90;99.90;;;;;;5009190;28;20784;-69
2024/01/08 09:08:57;;;;;;;0.90;0.90;;;-18.80;99.90;;;;;;5007791;28;20210;-69
2024/01/08 09:11:22;;;;;;;0.90;0.90;;;-18.70;99.90;;;;;;5009474;28;20638;-66
2024/01/08 09:13:48;;;;;;;0.90;0.90;;;-18.70;99.90;;;;;;5009392;28;20286;-65
2024/01/08 09:16:15;;;;;;;0.80;0.80;;;-18.60;99.90;;;;;;5009337;28;20270;-64
2024/01/08 09:18:42;;;;;;;0.90;0.90;;;-18.60;99.90;;;;;;5009213;28;20198;-65
2024/01/08 09:21:12;;;;;;;0.80;0.80;;;-18.60;99.90;;;;;;5007920;28;20191;-66
2024/01/08 09:23:39;;;;;;;1.00;1.00;;;-18.50;99.90;;;;;;5007901;28;20210;-65
2024/01/08 09:26:05;;;;;;;0.90;0.90;;;-18.60;99.90;;;;;;5009590;28;20191;-65
2024/01/08 09:28:32;;;;;;;0.90;0.90;;;-18.50;99.90;;;;;;5026353;28;20205;-65
2024/01/08 09:31:00;;;;;;;0.90;0.90;;;-18.50;99.90;;;;;;5027261;28;20663;-65
2024/01/08 09:33:26;;;;;;;0.80;0.80;;;-18.40;99.90;;;;;;5029078;28;20193;-65
2024/01/08 09:35:51;;;;;;;0.90;0.90;;;-18.20;99.90;;;;;;5029394;28;20241;-65
2024/01/08 09:38:17;;;;;;;0.80;0.80;;;-18.10;99.90;;;;;;5029664;28;20198;-66
2024/01/08 09:40:43;;;;;;;0.80;0.80;;;-18.00;99.90;;;;;;5030299;28;20230;-67
2024/01/08 09:43:09;;;;;;;0.83;0.83;;;-17.90;99.90;;;;;;5029933;28;20205;-66
2024/01/08 09:45:47;;;;;;;1.00;1.00;;;-17.90;99.90;;;;;;5028918;28;20195;-65
2024/01/08 09:48:13;;;;;;;0.70;0.70;;;-17.80;99.90;;;;;;5028977;28;20233;-66
2024/01/08 09:50:38;;;;;;;1.00;1.00;;;-17.80;99.90;;;;;;5032960;28;21547;-65
2024/01/08 09:53:04;;;;;;;1.10;1.10;;;-17.70;99.90;;;;;;5031830;28;20198;-65
2024/01/08 09:55:32;;;;;;;1.10;1.10;;;-17.60;99.90;;;;;;5032911;28;20202;-64
2024/01/08 09:57:57;;;;;;;1.00;1.00;;;-17.50;99.90;;;;;;5032728;28;20205;-66
2024/01/08 10:00:23;;;;;;;0.80;0.80;;;-17.40;99.90;;;;;;5032538;28;20389;-66
2024/01/08 10:02:58;;;;;;;0.90;0.90;;;-17.30;99.90;;;;;;5024192;28;20260;-66
2024/01/08 10:05:27;;;;;;;0.93;0.93;;;-17.20;99.90;;;;;;5032246;28;20286;-66
2024/01/08 10:07:52;;;;;;;0.90;0.90;;;-17.00;99.90;;;;;;5032845;28;20332;-64
2024/01/08 10:10:19;;;;;;;0.90;0.90;;;-16.90;99.90;;;;;;5032732;28;20227;-66
2024/01/08 10:12:49;;;;;;;0.90;0.90;;;-16.70;99.90;;;;;;5033007;28;20191;-65
2024/01/08 10:15:18;;;;;;;0.90;0.90;;;-16.60;99.90;;;;;;5033226;28;20312;-66
2024/01/08 10:17:48;;;;;;;0.90;0.90;;;-16.50;99.90;;;;;;5012839;28;20202;-67
2024/01/08 10:20:15;;;;;;;0.90;0.90;;;-16.20;99.90;;;;;;5013369;28;20241;-69
2024/01/08 10:22:41;;;;;;;0.80;0.80;;;-16.00;99.90;;;;;;5010467;28;20207;-67
2024/01/08 10:25:07;;;;;;;0.90;0.90;;;-15.80;99.90;;;;;;5026352;28;20731;-67
2024/01/08 10:27:34;;;;;;;1.20;1.20;;;-15.60;99.90;;;;;;5029935;28;20209;-67
2024/01/08 10:29:59;;;;;;;0.93;0.93;;;-15.50;99.90;;;;;;5031665;28;20393;-67
2024/01/08 10:32:25;;;;;;;1.03;1.03;;;-15.40;99.90;;;;;;5031560;28;20689;-66
2024/01/08 10:34:51;;;;;;;0.90;0.90;;;-15.40;99.90;;;;;;5031881;28;20545;-68
2024/01/08 10:37:20;;;;;;;0.90;0.90;;;-15.30;99.90;;;;;;5031461;28;20565;-67
2024/01/08 10:39:47;;;;;;;0.90;0.90;;;-15.20;99.90;;;;;;5031540;28;20689;-67
2024/01/08 10:42:13;;;;;;;0.90;0.90;;;-15.10;99.90;;;;;;5031704;28;20347;-67
2024/01/08 10:44:39;;;;;;;1.00;1.00;;;-15.10;99.90;;;;;;5031213;28;20230;-68
2024/01/08 10:47:09;;;;;;;0.83;0.83;;;-15.10;99.90;;;;;;5031676;28;20564;-68
2024/01/08 10:49:38;;;;;;;0.90;0.90;;;-15.10;99.90;;;;;;5031241;28;20206;-67
2024/01/08 10:52:27;;;;;;;1.00;1.00;;;-15.00;99.90;;;;;;5031530;28;20190;-68
2024/01/08 10:55:00;;;;;;;0.90;0.90;;;-15.00;99.90;;;;;;5031430;28;20579;-67
2024/01/08 10:57:55;;;;;;;1.20;1.20;;;-15.00;99.90;;;;;;5031444;28;20190;-67
2024/01/08 11:00:22;;;;;;;1.00;1.00;;;-15.10;99.90;;;;;;5012864;28;20245;-67
2024/01/08 11:02:48;;;;;;;1.00;1.00;;;-15.30;99.90;;;;;;5031033;28;20212;-67
2024/01/08 11:05:16;;;;;;;1.75;1.65;;;-15.20;99.90;;;;;;5013033;28;20426;-67
2024/01/08 11:07:45;;;;;;;1.20;1.20;;;-15.20;99.90;;;;;;5031451;28;20654;-67
2024/01/08 11:10:11;;;;;;;1.93;1.83;;;-15.10;99.90;;;;;;5031608;28;20599;-68
2024/01/08 11:12:39;;;;;;;1.00;1.00;;;-15.10;99.90;;;;;;5020690;28;20401;-67
2024/01/08 11:15:05;;;;;;;0.90;0.90;;;-15.00;99.90;;;;;;5010997;28;20468;-67
2024/01/08 11:17:32;;;;;;;2.80;2.60;;;-14.90;99.90;;;;;;5010839;28;20195;-67
2024/01/08 11:19:59;;;;;;;7.00;2.70;;;-14.80;99.90;;;;;;5016032;28;20633;-67
2024/01/08 11:22:25;;;;;;;1.00;1.00;;;-14.70;99.90;;;;;;5026116;28;20607;-67
2024/01/08 11:24:57;;;;;;;1.00;1.00;;;-14.80;99.90;;;;;;5030735;28;20195;-68
2024/01/08 11:27:24;;;;;;;1.00;1.00;;;-15.00;99.90;;;;;;5030590;28;20186;-67
2024/01/08 11:29:57;;;;;;;1.00;1.00;;;-15.00;99.90;;;;;;5029261;28;20714;-67
2024/01/08 11:32:55;;;;;;;0.90;0.90;;;-15.00;99.90;;;;;;5030447;28;20661;-69
2024/01/08 11:35:24;;;;;;;1.00;1.00;;;-14.90;99.90;;;;;;5028384;28;20441;-68
2024/01/08 11:38:24;;;;;;;1.10;1.10;;;-14.90;99.90;;;;;;5030922;28;20204;-69
2024/01/08 11:40:50;;;;;;;0.97;0.97;;;-15.00;99.90;;;;;;5012720;28;20201;-69
2024/01/08 11:43:18;;;;;;;1.00;1.00;;;-14.90;99.90;;;;;;5030412;28;20677;-69
2024/01/08 11:45:44;;;;;;;0.90;0.90;;;-14.90;99.90;;;;;;5030226;28;20205;-69
2024/01/08 11:48:10;;;;;;;1.00;1.00;;;-14.80;99.90;;;;;;5030371;28;20689;-69
2024/01/08 11:50:36;;;;;;;0.80;0.80;;;-14.60;99.90;;;;;;5029895;28;20210;-69
2024/01/08 11:53:05;;;;;;;0.90;0.90;;;-14.50;99.90;;;;;;5030260;28;20201;-68
2024/01/08 11:55:31;;;;;;;0.90;0.90;;;-14.40;99.90;;;;;;5029892;28;20667;-69
2024/01/08 11:57:57;;;;;;;0.90;0.90;;;-14.30;99.90;;;;;;5030102;28;20217;-69
2024/01/08 12:00:28;;;;;;;0.93;0.93;;;-14.20;99.90;;;;;;5029536;28;20694;-68
2024/01/08 12:03:09;;;;;;;4.83;2.83;;;-14.20;99.90;;;;;;5029797;28;20228;-68
2024/01/08 12:05:37;;;;;;;0.90;0.90;;;-14.10;99.90;;;;;;5029693;28;20244;-69
2024/01/08 12:08:03;;;;;;;0.90;0.90;;;-14.10;99.90;;;;;;5027706;28;20220;-70
2024/01/08 12:10:30;;;;;;;1.00;1.00;;;-14.00;99.90;;;;;;5007808;28;20737;-70
2024/01/08 12:12:56;;;;;;;1.00;1.00;;;-13.90;99.90;;;;;;5009984;28;20312;-69
2024/01/08 12:15:22;;;;;;;1.00;1.00;;;-13.90;99.90;;;;;;5012168;28;20222;-69
2024/01/08 12:17:48;;;;;;;0.80;0.80;;;-13.80;99.90;;;;;;5029774;28;20877;-70
2024/01/08 12:20:14;;;;;;;0.90;0.90;;;-13.60;99.90;;;;;;5016048;28;20226;-70
2024/01/08 12:22:40;;;;;;;1.00;1.00;;;-13.50;99.90;;;;;;5009587;28;20194;-69
2024/01/08 12:25:10;;;;;;;0.90;0.90;;;-13.30;99.90;;;;;;5009848;28;20230;-69
2024/01/08 12:27:36;;;;;;;0.90;0.90;;;-13.30;99.90;;;;;;5009714;28;20628;-69
2024/01/08 12:30:03;;;;;;;1.73;1.63;;;-13.20;99.90;;;;;;5009936;28;20301;-69
2024/01/08 12:32:29;;;;;;;0.90;0.90;;;-13.20;99.90;;;;;;5010241;28;20190;-69
2024/01/08 12:35:00;;;;;;;0.90;0.90;;;-13.30;99.90;;;;;;4992677;28;20585;-69